Time;durP1;ratioP1;P1;durP2;ratioP2;P2;SDS_P1;SDS_P2;PMS_P1;PMS_P2;Temp;Humidity;BMP_temperature;BMP_pressure;BME280_temperature;BME280_humidity;BME280_pressure;Samples;Min_cycle;Max_cycle;Signal;HPM_P1;HPM_P2
2021/07/09 00:01:13;;;;;;;12.80;10.68;;;18.40;99.90;;;18.88;73.46;102121.00;4995388;28;20053;-67
2021/07/09 00:03:42;;;;;;;15.63;12.00;;;18.40;99.90;;;18.75;73.61;102093.56;4995288;28;20053;-67
2021/07/09 00:06:10;;;;;;;16.45;12.93;;;18.40;99.90;;;19.01;73.49;102111.81;4993739;28;20117;-67
2021/07/09 00:08:39;;;;;;;15.18;13.05;;;18.50;99.90;;;19.04;73.13;102117.13;4994971;28;20050;-66
2021/07/09 00:11:08;;;;;;;28.13;12.73;;;18.60;99.90;;;18.89;73.03;102115.59;4994899;28;20096;-67
2021/07/09 00:13:38;;;;;;;15.23;12.77;;;18.50;99.90;;;18.86;73.78;102125.50;4994611;28;20495;-67
2021/07/09 00:16:07;;;;;;;31.88;20.45;;;18.40;99.90;;;18.64;73.20;102100.03;4995078;28;20126;-67
2021/07/09 00:18:35;;;;;;;27.92;19.73;;;18.30;99.90;;;18.75;73.26;102114.09;4994506;28;20042;-66
2021/07/09 00:21:04;;;;;;;25.27;17.77;;;18.30;99.90;;;18.71;73.36;102112.41;4994837;28;20038;-67
2021/07/09 00:23:33;;;;;;;19.60;16.60;;;18.30;99.90;;;18.59;73.50;102109.91;4994541;28;20090;-67
2021/07/09 00:26:01;;;;;;;19.88;15.27;;;18.20;99.90;;;18.56;73.46;102118.88;4994612;28;20046;-67
2021/07/09 00:28:30;;;;;;;18.73;15.85;;;18.20;99.90;;;18.43;73.41;102122.69;4994228;28;20053;-67
2021/07/09 00:31:00;;;;;;;17.35;13.80;;;18.10;99.90;;;18.39;74.05;102109.38;4994578;28;20078;-67
2021/07/09 00:33:29;;;;;;;13.38;11.38;;;18.00;99.90;;;18.43;73.11;102111.09;4994515;28;20117;-67
2021/07/09 00:35:57;;;;;;;18.10;14.93;;;17.90;99.90;;;18.43;73.56;102103.06;4994264;28;20305;-67
2021/07/09 00:38:26;;;;;;;19.08;15.30;;;18.00;99.90;;;18.55;73.46;102105.53;5009741;28;20050;-67
2021/07/09 00:40:54;;;;;;;19.15;16.05;;;18.00;99.90;;;18.55;73.01;102079.63;4994191;28;20042;-67
2021/07/09 00:43:23;;;;;;;17.10;15.25;;;18.20;99.90;;;18.73;72.88;102098.06;4993102;28;20069;-67
2021/07/09 00:45:52;;;;;;;18.00;14.68;;;18.20;99.90;;;18.82;72.45;102097.88;4993582;28;20401;-67
2021/07/09 00:48:21;;;;;;;15.85;13.25;;;18.30;99.90;;;18.18;72.11;101968.63;4994285;28;20046;-67
2021/07/09 00:50:50;;;;;;;19.05;13.18;;;18.40;99.90;;;18.87;71.88;102076.34;4994262;28;20074;-67
2021/07/09 00:53:18;;;;;;;15.75;14.00;;;18.50;99.90;;;19.05;71.58;102099.25;4993962;28;20050;-67
2021/07/09 00:55:47;;;;;;;15.23;12.93;;;18.60;99.90;;;19.08;71.17;102096.50;4994534;28;20050;-67
2021/07/09 00:58:15;;;;;;;16.48;13.30;;;18.60;99.90;;;18.91;71.19;102056.63;4994049;28;20408;-67
2021/07/09 01:00:44;;;;;;;18.60;14.30;;;18.70;99.90;;;19.21;71.10;102092.66;4993775;28;20046;-67
2021/07/09 01:03:12;;;;;;;17.58;14.73;;;18.70;99.90;;;19.30;71.11;102092.47;4993872;28;20034;-67
2021/07/09 01:05:43;;;;;;;15.80;13.35;;;18.80;99.90;;;19.29;71.45;102093.38;4994027;28;20100;-67
2021/07/09 01:08:12;;;;;;;18.60;14.15;;;18.90;99.90;;;18.82;71.53;102008.50;4994061;28;20050;-67
2021/07/09 01:10:42;;;;;;;19.10;14.85;;;18.90;99.90;;;19.26;71.38;102080.03;4993977;28;20125;-67
2021/07/09 01:13:11;;;;;;;17.08;13.93;;;19.00;99.90;;;19.18;71.24;102068.56;4994044;28;20046;-67
2021/07/09 01:15:40;;;;;;;17.52;13.63;;;19.00;99.90;;;19.36;71.59;102100.41;4993863;28;20074;-67
2021/07/09 01:18:08;;;;;;;18.27;14.95;;;18.90;99.90;;;19.37;71.63;102105.78;4993602;28;20062;-67
2021/07/09 01:20:37;;;;;;;18.13;12.90;;;19.00;99.90;;;19.11;71.35;102058.88;4993516;28;20096;-67
2021/07/09 01:23:08;;;;;;;22.33;12.73;;;18.90;99.90;;;19.15;71.19;102065.94;4993774;28;20427;-67
2021/07/09 01:25:38;;;;;;;16.33;12.57;;;18.90;99.90;;;19.28;71.13;102091.63;4993817;28;20050;-67
2021/07/09 01:28:08;;;;;;;;;;;18.90;99.90;;;19.30;71.19;102097.84;4994309;28;20046;-67
2021/07/09 01:30:38;;;;;;;13.50;10.45;;;18.90;99.90;;;19.28;71.84;102095.16;4993834;28;19922;-67
2021/07/09 01:33:07;;;;;;;11.10;10.00;;;18.90;99.90;;;19.21;72.32;102090.84;5008936;28;20116;-67
2021/07/09 01:35:36;;;;;;;13.38;11.25;;;18.80;99.90;;;19.18;72.83;102087.34;4993742;28;20043;-67
2021/07/09 01:38:08;;;;;;;15.27;11.85;;;18.70;99.90;;;19.17;72.61;102081.09;4993705;28;20042;-67
2021/07/09 01:40:40;;;;;;;15.07;12.50;;;18.70;99.90;;;19.07;72.23;102089.34;4993539;28;20046;-67
2021/07/09 01:43:08;;;;;;;11.38;10.27;;;18.60;99.90;;;18.73;72.83;102084.66;4993505;28;20397;-67
2021/07/09 01:45:37;;;;;;;10.85;9.18;;;18.40;99.90;;;17.81;74.59;101983.53;4992273;28;20041;-67
2021/07/09 01:48:06;;;;;;;15.85;10.98;;;18.00;99.90;;;18.32;76.16;102075.53;4993770;28;20047;-67
2021/07/09 01:50:35;;;;;;;9.50;8.60;;;17.80;99.90;;;18.01;76.81;102035.88;4993160;28;20046;-67
2021/07/09 01:53:04;;;;;;;15.45;13.43;;;17.80;99.90;;;18.25;76.15;102081.91;4992425;28;20047;-67
2021/07/09 01:55:32;;;;;;;13.50;12.07;;;17.70;99.90;;;17.88;76.34;102020.91;4992283;28;20057;-67
2021/07/09 01:58:03;;;;;;;13.18;11.68;;;17.70;99.90;;;18.29;76.74;102083.63;4996273;28;20054;-67
2021/07/09 02:00:31;;;;;;;17.90;14.02;;;17.80;99.90;;;18.36;76.59;102077.25;4997502;28;20046;-67
2021/07/09 02:02:59;;;;;;;15.80;13.60;;;17.90;99.90;;;18.22;76.70;102041.75;4997368;28;20047;-67
2021/07/09 02:05:28;;;;;;;15.75;13.50;;;17.90;99.90;;;18.40;76.16;102069.13;4997086;28;20073;-67
2021/07/09 02:07:57;;;;;;;17.23;14.25;;;18.00;99.90;;;18.56;75.97;102081.38;4997424;28;20042;-67
2021/07/09 02:10:29;;;;;;;17.17;13.88;;;18.10;99.90;;;16.28;75.48;101683.78;4997039;28;20451;-67
2021/07/09 02:13:00;;;;;;;12.93;11.02;;;18.10;99.90;;;18.52;76.88;102085.03;4997148;28;20042;-67
2021/07/09 02:15:33;;;;;;;12.50;11.18;;;18.10;99.90;;;18.52;77.61;102079.69;4996832;28;20377;-67
2021/07/09 02:18:02;;;;;;;14.25;11.02;;;18.00;99.90;;;18.56;77.77;102089.41;4997046;28;20038;-67
2021/07/09 02:20:31;;;;;;;17.67;14.70;;;18.00;99.90;;;18.53;77.40;102085.91;4996998;28;20046;-67
2021/07/09 02:23:02;;;;;;;18.55;15.32;;;18.10;99.90;;;18.60;76.76;102083.09;4996851;28;20046;-67
2021/07/09 02:25:31;;;;;;;19.77;16.00;;;18.10;99.90;;;18.66;76.28;102082.13;4996998;28;20081;-67
2021/07/09 02:28:00;;;;;;;15.13;13.32;;;18.20;99.90;;;18.71;76.24;102089.16;4996551;28;20097;-67
2021/07/09 02:30:31;;;;;;;13.43;12.13;;;18.30;99.90;;;18.73;76.45;102087.34;4996719;28;20043;-67
2021/07/09 02:32:59;;;;;;;13.25;11.63;;;18.30;99.90;;;18.76;76.33;102092.63;4996835;28;20089;-67
2021/07/09 02:35:30;;;;;;;13.05;11.75;;;18.30;99.90;;;18.68;76.78;102091.88;4996754;28;20046;-67
2021/07/09 02:37:59;;;;;;;14.25;12.75;;;18.30;99.90;;;18.69;76.39;102080.25;4996975;28;20484;-67
2021/07/09 02:40:30;;;;;;;13.13;11.82;;;18.20;99.90;;;18.71;76.27;102082.91;4996568;28;20054;-67
2021/07/09 02:43:01;;;;;;;15.90;13.27;;;18.20;99.90;;;17.01;75.56;101782.41;4996346;28;20043;-67
2021/07/09 02:45:31;;;;;;;17.65;14.05;;;18.30;99.90;;;18.75;75.44;102088.19;4996545;28;20046;-67
2021/07/09 02:48:16;;;;;;;15.55;13.55;;;18.30;99.90;;;18.73;75.49;102076.63;4996467;28;20070;-67
2021/07/09 02:50:45;;;;;;;14.43;12.93;;;18.30;99.90;;;18.77;75.63;102083.69;5011025;28;20473;-67
2021/07/09 02:53:13;;;;;;;14.18;12.50;;;18.30;99.90;;;18.72;76.01;102077.50;4996118;28;20039;-67
2021/07/09 02:55:44;;;;;;;14.02;12.52;;;18.30;99.90;;;18.68;76.62;102078.47;4996535;28;20034;-67
2021/07/09 02:58:12;;;;;;;14.00;12.50;;;18.20;99.90;;;18.64;76.64;102060.69;4996391;28;20042;-67
2021/07/09 03:00:42;;;;;;;14.40;12.90;;;18.20;99.90;;;18.50;76.21;102027.91;4996194;28;20484;-67
2021/07/09 03:03:10;;;;;;;15.10;12.87;;;18.20;99.90;;;18.64;76.69;102059.81;4996032;28;20499;-67
2021/07/09 03:05:39;;;;;;;14.60;13.10;;;18.20;99.90;;;18.62;77.08;102067.88;4996139;28;20054;-67
2021/07/09 03:08:07;;;;;;;12.50;10.95;;;18.20;99.90;;;18.33;76.60;102039.81;4995450;28;20100;-67
2021/07/09 03:10:36;;;;;;;13.00;10.93;;;18.00;99.90;;;18.29;77.57;102064.88;4995682;28;20042;-67
2021/07/09 03:13:04;;;;;;;13.82;11.73;;;17.80;99.90;;;18.28;77.84;102055.94;4995839;28;20058;-67
2021/07/09 03:15:33;;;;;;;13.13;11.65;;;17.80;99.90;;;18.25;77.96;102069.41;4996087;28;20133;-67
2021/07/09 03:18:03;;;;;;;10.45;9.27;;;17.80;99.90;;;18.08;77.97;102059.88;4995830;28;20053;-67
2021/07/09 03:20:32;;;;;;;14.82;12.18;;;17.60;99.90;;;18.16;77.91;102064.19;4995931;28;20046;-67
2021/07/09 03:23:00;;;;;;;14.85;13.27;;;17.70;99.90;;;18.17;78.00;102063.28;4995742;28;20050;-67
2021/07/09 03:25:28;;;;;;;21.15;16.63;;;17.70;99.90;;;18.14;78.49;102049.94;4994573;28;20077;-67
2021/07/09 03:27:57;;;;;;;13.65;10.95;;;17.70;99.90;;;18.13;79.02;102058.88;4995908;28;20054;-67
2021/07/09 03:30:27;;;;;;;11.20;10.10;;;17.60;99.90;;;17.95;79.49;102048.47;4994228;28;20097;-67
2021/07/09 03:32:55;;;;;;;16.73;13.75;;;17.60;99.90;;;18.10;79.50;102066.94;4995630;28;20046;-67
2021/07/09 03:35:25;;;;;;;18.30;15.68;;;17.60;99.90;;;17.91;79.42;102036.91;4995580;28;20439;-67
2021/07/09 03:37:54;;;;;;;17.17;15.35;;;17.60;99.90;;;17.93;79.22;102042.25;4995581;28;20534;-67
2021/07/09 03:40:25;;;;;;;19.30;16.30;;;17.60;99.90;;;18.16;79.45;102065.97;4995620;28;20527;-67
2021/07/09 03:42:53;;;;;;;18.15;15.27;;;17.70;99.90;;;18.06;79.56;102065.22;4995255;28;20066;-67
2021/07/09 03:45:22;;;;;;;19.45;15.40;;;17.60;99.90;;;18.16;79.66;102074.00;4995350;28;20137;-67
2021/07/09 03:47:50;;;;;;;25.17;16.67;;;17.70;99.90;;;18.25;79.57;102068.50;4995716;28;20360;-67
2021/07/09 03:50:19;;;;;;;25.15;18.60;;;17.80;99.90;;;18.13;79.50;102069.59;4995324;28;20114;-67
2021/07/09 03:52:48;;;;;;;20.35;15.20;;;17.70;99.90;;;17.97;79.77;102074.31;4995313;28;20077;-67
2021/07/09 03:55:17;;;;;;;21.60;15.43;;;17.60;99.90;;;17.36;79.77;101973.53;4995286;28;20038;-67
2021/07/09 03:57:45;;;;;;;18.90;15.82;;;17.50;99.90;;;17.74;79.53;102043.44;4995142;28;20046;-67
2021/07/09 04:00:16;;;;;;;20.05;16.00;;;17.40;99.90;;;17.87;79.55;102053.94;4995165;28;20101;-67
2021/07/09 04:02:45;;;;;;;18.20;15.20;;;17.50;99.90;;;17.76;79.37;102031.81;4995103;28;20500;-67
2021/07/09 04:05:14;;;;;;;20.05;14.55;;;17.60;99.90;;;17.78;79.64;102024.66;4994972;28;20603;-68
2021/07/09 04:07:43;;;;;;;21.98;16.55;;;17.70;99.90;;;17.90;79.82;102051.19;4995017;28;20053;-67
2021/07/09 04:10:14;;;;;;;19.40;15.00;;;17.60;99.90;;;18.08;79.90;102075.94;4994985;28;20042;-68
2021/07/09 04:12:42;;;;;;;22.42;16.90;;;17.60;99.90;;;17.82;79.69;102025.47;4994941;28;20042;-67
2021/07/09 04:15:12;;;;;;;18.20;15.35;;;17.70;99.90;;;18.25;79.71;102077.44;4994786;28;20042;-69
2021/07/09 04:17:41;;;;;;;19.50;15.13;;;17.80;99.90;;;18.32;79.78;102087.13;4995099;28;20050;-70
2021/07/09 04:20:10;;;;;;;18.67;14.88;;;17.80;99.90;;;18.36;79.77;102090.63;4994589;28;20477;-69
2021/07/09 04:22:39;;;;;;;21.00;14.88;;;17.90;99.90;;;18.34;79.36;102079.06;4994614;28;20054;-69
2021/07/09 04:25:13;;;;;;;20.17;14.75;;;18.00;99.90;;;18.44;79.53;102092.31;4995044;28;20042;-70
2021/07/09 04:27:43;;;;;;;20.75;16.30;;;18.00;99.90;;;18.36;79.76;102083.50;4993387;28;20069;-71
2021/07/09 04:30:13;;;;;;;22.52;14.85;;;18.00;99.90;;;18.10;79.67;102018.75;4994618;28;20126;-71
2021/07/09 04:32:41;;;;;;;19.02;15.13;;;18.10;99.90;;;18.58;79.60;102108.16;4994466;28;20045;-71
2021/07/09 04:35:11;;;;;;;20.35;14.32;;;18.10;99.90;;;18.48;79.27;102071.72;4994808;28;20056;-71
2021/07/09 04:37:40;;;;;;;18.48;14.45;;;18.20;99.90;;;18.69;78.50;102096.34;4994539;28;20047;-71
2021/07/09 04:40:15;;;;;;;21.08;15.88;;;18.30;99.90;;;18.76;78.29;102097.09;4994360;28;20381;-71
2021/07/09 04:42:44;;;;;;;18.15;14.52;;;18.30;99.90;;;18.72;77.86;102085.56;4994369;28;20050;-70
2021/07/09 04:45:14;;;;;;;18.98;15.40;;;18.40;99.90;;;18.84;77.76;102097.84;4994072;28;20038;-70
2021/07/09 04:47:43;;;;;;;19.50;15.40;;;18.40;99.90;;;18.77;78.07;102064.03;4993961;28;20116;-70
2021/07/09 04:50:12;;;;;;;18.98;14.93;;;18.50;99.90;;;19.00;77.22;102093.97;4993910;28;20097;-70
2021/07/09 04:52:43;;;;;;;18.52;14.65;;;18.60;99.90;;;18.99;77.03;102096.69;4993990;28;20074;-70
2021/07/09 04:55:16;;;;;;;18.15;14.05;;;18.50;99.90;;;19.08;77.40;102102.75;4994169;28;20121;-70
2021/07/09 04:57:45;;;;;;;19.58;14.05;;;18.70;99.90;;;18.64;77.63;102007.06;4994263;28;20097;-71
2021/07/09 05:00:15;;;;;;;18.77;14.38;;;18.80;99.90;;;19.32;77.30;102101.34;4994175;28;20047;-70
2021/07/09 05:02:43;;;;;;;19.13;15.73;;;18.90;99.90;;;19.33;76.44;102104.06;4993978;28;20455;-71
2021/07/09 05:05:15;;;;;;;21.67;15.48;;;18.90;99.90;;;19.36;75.81;102106.66;4993993;28;20317;-70
2021/07/09 05:07:47;;;;;;;21.27;14.75;;;18.90;99.90;;;19.40;75.66;102112.84;4994103;28;20042;-71
2021/07/09 05:10:17;;;;;;;21.98;15.02;;;19.00;99.90;;;19.39;75.67;102103.03;5008948;28;20050;-70
2021/07/09 05:12:45;;;;;;;23.55;16.13;;;19.00;99.90;;;19.49;75.71;102107.31;4993989;28;20038;-71
2021/07/09 05:15:14;;;;;;;19.80;15.32;;;19.00;99.90;;;19.51;75.49;102132.31;4993866;28;20042;-71
2021/07/09 05:17:43;;;;;;;19.75;15.45;;;19.10;99.90;;;19.52;75.55;102120.66;4992550;28;20050;-71
2021/07/09 05:20:13;;;;;;;19.02;14.68;;;19.10;99.90;;;19.54;76.64;102118.81;4993585;28;20042;-71
2021/07/09 05:22:43;;;;;;;19.88;15.45;;;19.10;99.90;;;19.62;76.64;102123.13;4993230;28;20058;-69
2021/07/09 05:25:12;;;;;;;25.17;16.75;;;19.20;99.90;;;19.62;76.66;102117.75;5008664;28;20496;-70
2021/07/09 05:27:45;;;;;;;23.60;15.48;;;19.20;99.90;;;19.72;76.48;102124.66;4993608;28;20047;-69
2021/07/09 05:30:16;;;;;;;22.92;16.35;;;19.30;99.90;;;19.82;76.14;102122.69;4993388;28;20489;-70
2021/07/09 05:32:46;;;;;;;22.63;16.50;;;19.30;99.90;;;19.92;76.08;102132.28;4996106;28;20038;-70
2021/07/09 05:35:16;;;;;;;22.58;16.77;;;19.40;99.90;;;19.97;76.46;102133.06;4997323;28;20089;-70
2021/07/09 05:37:44;;;;;;;27.70;19.08;;;19.60;99.90;;;20.04;76.75;102129.31;4997650;28;20451;-70
2021/07/09 05:40:14;;;;;;;23.75;18.70;;;19.60;99.90;;;20.08;76.40;102133.72;4997741;28;20077;-70
2021/07/09 05:42:46;;;;;;;26.98;19.95;;;19.60;99.90;;;20.20;76.28;102137.94;4997273;28;20519;-70
2021/07/09 05:45:14;;;;;;;25.88;18.42;;;19.70;99.90;;;20.25;75.92;102130.63;4997425;28;20069;-70
2021/07/09 05:47:42;;;;;;;27.88;18.65;;;19.80;99.90;;;20.29;75.43;102135.91;4997405;28;20042;-70
2021/07/09 05:50:11;;;;;;;22.48;16.42;;;19.90;99.90;;;20.17;74.54;102116.50;4997262;28;20050;-70
2021/07/09 05:52:40;;;;;;;21.42;17.00;;;19.90;99.90;;;20.30;74.10;102134.13;4995926;28;20046;-70
2021/07/09 05:55:10;;;;;;;20.40;15.85;;;19.90;99.90;;;20.29;74.43;102126.97;5012468;28;20510;-70
2021/07/09 05:57:38;;;;;;;20.00;15.37;;;19.90;99.90;;;20.30;73.35;102131.44;5012383;28;20054;-70
2021/07/09 06:00:10;;;;;;;20.92;16.02;;;19.90;99.90;;;20.36;73.80;102129.47;4997227;28;20439;-70
2021/07/09 06:02:39;;;;;;;22.70;16.42;;;19.90;99.90;;;20.39;73.60;102140.16;4997027;28;20149;-70
2021/07/09 06:05:11;;;;;;;21.70;17.30;;;20.00;99.90;;;20.37;74.07;102112.44;4997105;28;20050;-70
2021/07/09 06:07:40;;;;;;;22.50;16.25;;;20.00;99.90;;;20.56;73.57;102137.03;4997093;28;20289;-70
2021/07/09 06:10:10;;;;;;;21.10;16.70;;;20.10;99.90;;;20.62;73.64;102132.41;4995796;28;20075;-70
2021/07/09 06:12:39;;;;;;;19.67;16.58;;;20.20;99.90;;;20.71;72.76;102141.16;4997150;28;20042;-72
2021/07/09 06:15:11;;;;;;;21.88;15.90;;;20.30;99.90;;;20.70;72.12;102137.56;4997312;28;20050;-72
2021/07/09 06:17:39;;;;;;;19.27;15.30;;;20.30;99.90;;;20.64;71.49;102118.91;4996812;28;20069;-73
2021/07/09 06:20:09;;;;;;;19.08;15.32;;;20.30;99.90;;;20.79;71.43;102136.47;4996629;28;20045;-72
2021/07/09 06:22:37;;;;;;;20.60;14.40;;;20.30;99.90;;;20.66;71.05;102095.53;4996901;28;20150;-69
2021/07/09 06:25:07;;;;;;;22.23;14.52;;;20.40;99.90;;;20.75;70.83;102115.94;4996560;28;20407;-69
2021/07/09 06:27:36;;;;;;;22.10;16.60;;;20.40;99.90;;;20.80;70.84;102135.53;5011834;28;20046;-70
2021/07/09 06:30:06;;;;;;;19.63;15.85;;;20.40;99.90;;;20.80;70.98;102124.75;4996711;28;20070;-70
2021/07/09 06:32:36;;;;;;;23.92;17.35;;;20.40;99.90;;;20.68;71.06;102099.06;4996583;28;20046;-70
2021/07/09 06:35:09;;;;;;;21.65;16.00;;;20.40;99.90;;;20.87;70.56;102129.94;4996955;28;20042;-70
2021/07/09 06:37:38;;;;;;;19.73;15.38;;;20.50;99.90;;;20.97;70.82;102127.88;4996850;28;20046;-70
2021/07/09 06:40:10;;;;;;;24.80;17.25;;;20.50;99.90;;;21.02;70.70;102120.63;5011652;28;20050;-70
2021/07/09 06:42:38;;;;;;;22.30;15.57;;;20.60;99.90;;;21.20;71.09;102122.78;4994937;28;20073;-70
2021/07/09 06:45:08;;;;;;;23.67;16.90;;;20.70;99.90;;;21.05;70.48;102066.69;4995769;28;20436;-70
2021/07/09 06:47:38;;;;;;;23.83;16.95;;;20.90;99.90;;;21.32;70.44;102099.09;4996163;28;20046;-70
2021/07/09 06:50:07;;;;;;;23.55;16.58;;;21.00;99.90;;;21.35;70.20;102090.91;4995659;28;20039;-70
2021/07/09 06:52:36;;;;;;;27.25;17.05;;;21.10;99.90;;;21.38;69.79;102079.19;4994887;28;20150;-70
2021/07/09 06:55:06;;;;;;;16.50;13.30;;;21.20;99.90;;;21.53;68.67;102114.63;4996143;28;20436;-70
2021/07/09 06:57:34;;;;;;;16.80;13.38;;;21.20;99.90;;;21.39;68.25;102073.75;4996212;28;20039;-70
2021/07/09 07:00:05;;;;;;;18.75;14.40;;;21.20;99.90;;;21.57;68.13;102128.88;4995522;28;20404;-70
2021/07/09 07:02:34;;;;;;;18.55;13.82;;;21.30;99.90;;;21.62;68.05;102101.81;4994922;28;20042;-71
2021/07/09 07:05:06;;;;;;;19.95;14.50;;;21.30;99.90;;;21.77;68.62;102117.50;4995751;28;20518;-66
2021/07/09 07:07:34;;;;;;;20.80;14.85;;;21.30;99.90;;;21.79;68.01;102121.94;4996050;28;20042;-66
2021/07/09 07:10:03;;;;;;;17.88;13.95;;;21.30;99.90;;;21.86;68.56;102130.72;4995997;28;20042;-66
2021/07/09 07:12:32;;;;;;;25.13;15.90;;;21.40;99.90;;;21.97;68.51;102133.97;4995501;28;20105;-66
2021/07/09 07:15:02;;;;;;;18.05;13.23;;;21.50;99.90;;;21.89;67.91;102123.41;4995817;28;20038;-66
2021/07/09 07:17:30;;;;;;;21.40;13.83;;;21.50;99.90;;;21.88;66.82;102132.44;4995599;28;20399;-66
2021/07/09 07:19:59;;;;;;;19.20;14.52;;;21.40;99.90;;;21.37;67.11;102024.44;4994258;28;20088;-66
2021/07/09 07:22:28;;;;;;;23.70;17.20;;;21.60;99.90;;;22.00;66.74;102129.38;4995559;28;20058;-66
2021/07/09 07:24:57;;;;;;;31.55;23.00;;;21.60;99.90;;;21.95;67.20;102128.63;4995488;28;20049;-66
2021/07/09 07:27:27;;;;;;;25.45;18.92;;;21.50;99.90;;;21.85;68.13;102115.50;4995885;28;20065;-62
2021/07/09 07:29:58;;;;;;;22.10;15.75;;;21.50;99.90;;;21.87;67.76;102122.63;4995652;28;20062;-64
2021/07/09 07:32:27;;;;;;;21.80;15.60;;;21.50;99.90;;;21.96;67.82;102119.63;4995635;28;20171;-64
2021/07/09 07:34:56;;;;;;;21.58;17.52;;;21.60;99.90;;;21.48;66.56;102029.53;4995502;28;20038;-66
2021/07/09 07:37:24;;;;;;;23.17;17.45;;;21.60;99.90;;;22.06;67.14;102131.88;4995105;28;20057;-65
2021/07/09 07:39:55;;;;;;;23.30;16.77;;;21.70;99.90;;;22.14;67.12;102132.50;4995186;28;20047;-65
2021/07/09 07:42:24;;;;;;;24.42;17.17;;;21.80;99.90;;;22.18;67.07;102134.16;4995326;28;20038;-65
2021/07/09 07:44:52;;;;;;;23.23;16.98;;;21.80;99.90;;;22.09;66.95;102112.00;4994989;28;20039;-65
2021/07/09 07:47:21;;;;;;;23.00;16.13;;;21.80;99.90;;;22.28;66.86;102138.34;4995537;28;20038;-66
2021/07/09 07:49:50;;;;;;;22.08;15.02;;;21.90;99.90;;;22.18;66.63;102126.06;5010053;28;20055;-66
2021/07/09 07:52:18;;;;;;;20.58;15.02;;;21.90;99.90;;;22.39;66.58;102141.59;5010196;28;20065;-66
2021/07/09 07:54:47;;;;;;;22.05;14.95;;;22.00;99.90;;;22.49;66.33;102133.19;4994818;28;20046;-66
2021/07/09 07:57:17;;;;;;;20.98;14.75;;;22.10;99.90;;;22.54;65.46;102141.97;4993828;28;20504;-66
2021/07/09 07:59:45;;;;;;;19.70;14.45;;;22.20;99.90;;;22.59;65.19;102131.97;5009787;28;20050;-65
2021/07/09 08:02:14;;;;;;;16.35;13.77;;;22.20;99.90;;;22.67;65.12;102144.25;4994798;28;20400;-66
2021/07/09 08:04:44;;;;;;;17.55;13.88;;;22.20;99.90;;;22.74;66.22;102136.84;4994920;28;20038;-67
2021/07/09 08:07:14;;;;;;;20.02;13.13;;;22.40;99.90;;;22.94;64.85;102139.72;4994873;28;20496;-66
2021/07/09 08:09:43;;;;;;;16.33;11.50;;;22.60;99.90;;;23.07;63.92;102132.97;4994804;28;20050;-66
2021/07/09 08:12:12;;;;;;;14.38;10.52;;;22.70;99.90;;;23.20;62.35;102136.97;4994650;28;20070;-66
2021/07/09 08:14:41;;;;;;;14.60;10.50;;;22.80;99.90;;;23.31;62.89;102129.38;5009707;28;20097;-68
2021/07/09 08:17:10;;;;;;;14.90;11.27;;;23.00;99.90;;;23.47;61.68;102140.50;4993560;28;20496;-68
2021/07/09 08:19:39;;;;;;;18.13;12.77;;;23.10;99.90;;;23.47;62.09;102132.41;4994582;28;20420;-68
2021/07/09 08:22:07;;;;;;;16.40;10.98;;;23.10;99.90;;;23.51;62.00;102140.34;4994294;28;20503;-67
2021/07/09 08:24:36;;;;;;;21.33;11.32;;;23.20;99.90;;;23.59;61.69;102153.56;4994423;28;20049;-68
2021/07/09 08:27:05;;;;;;;13.90;10.63;;;23.20;99.90;;;23.55;60.93;102143.81;4994399;28;20045;-68
2021/07/09 08:29:33;;;;;;;17.58;11.02;;;23.20;99.90;;;23.70;60.81;102149.50;4993228;28;20050;-68
2021/07/09 08:32:05;;;;;;;15.63;11.18;;;23.30;99.90;;;23.66;60.64;102136.16;4994406;28;20056;-68
2021/07/09 08:34:34;;;;;;;15.85;10.90;;;23.30;99.90;;;23.74;59.98;102144.88;4994498;28;20042;-68
2021/07/09 08:37:03;;;;;;;15.25;11.43;;;23.30;99.90;;;23.70;60.08;102133.28;4994006;28;20078;-68
2021/07/09 08:39:32;;;;;;;15.80;12.90;;;23.30;99.90;;;23.61;60.10;102117.44;4994342;28;20054;-71
2021/07/09 08:42:01;;;;;;;16.38;13.35;;;23.30;99.90;;;23.71;60.06;102140.44;4994089;28;20105;-68
2021/07/09 08:44:29;;;;;;;15.60;13.32;;;23.30;99.90;;;23.78;60.41;102133.00;4994314;28;20050;-68
2021/07/09 08:46:58;;;;;;;15.13;12.23;;;23.40;99.90;;;23.60;60.26;102096.75;4994260;28;20496;-68
2021/07/09 08:49:28;;;;;;;19.30;11.93;;;23.50;99.90;;;23.92;59.98;102127.94;5009238;28;20491;-68
2021/07/09 08:51:57;;;;;;;15.52;12.02;;;23.50;99.90;;;23.79;58.87;102116.72;4994017;28;20046;-67
2021/07/09 08:54:25;;;;;;;15.90;12.45;;;23.50;99.90;;;23.84;58.88;102135.47;4994116;28;20043;-68
2021/07/09 08:56:53;;;;;;;13.32;11.60;;;23.50;99.90;;;23.81;59.48;102128.34;4993777;28;20399;-68
2021/07/09 08:59:22;;;;;;;26.50;13.25;;;23.50;99.90;;;23.87;60.21;102132.63;4993879;28;20053;-68
2021/07/09 09:01:55;;;;;;;18.45;13.15;;;23.50;99.90;;;23.82;60.40;102116.59;5009224;28;20052;-68
2021/07/09 09:04:28;;;;;;;15.82;13.55;;;23.50;99.90;;;23.89;59.95;102128.94;4993879;28;20053;-68
2021/07/09 09:07:03;;;;;;;22.17;12.70;;;23.60;99.90;;;23.94;60.02;102124.22;4993107;28;20046;-68
2021/07/09 09:09:34;;;;;;;15.38;12.98;;;23.60;99.90;;;23.81;60.28;102119.38;4993755;28;20084;-68
2021/07/09 09:12:06;;;;;;;14.40;11.65;;;23.50;99.90;;;23.90;60.43;102132.53;4993835;28;20044;-68
2021/07/09 09:14:37;;;;;;;15.43;12.55;;;23.50;99.90;;;23.78;59.22;102111.38;4993887;28;20042;-68
2021/07/09 09:17:31;;;;;;;19.38;13.73;;;23.60;99.90;;;23.87;59.83;102127.22;4993836;28;20047;-68
2021/07/09 09:20:14;;;;;;;16.92;13.05;;;23.50;99.90;;;23.98;59.52;102112.34;4993716;28;20042;-68
2021/07/09 09:23:01;;;;;;;17.50;11.73;;;23.60;99.90;;;24.07;58.63;102122.84;4993631;28;20058;-68
2021/07/09 09:25:33;;;;;;;14.32;11.00;;;23.70;99.90;;;24.23;58.17;102124.91;4993382;28;20461;-68
2021/07/09 09:28:09;;;;;;;12.80;11.35;;;23.90;99.90;;;24.41;56.99;102129.56;4993379;28;20129;-68
2021/07/09 09:30:39;;;;;;;14.18;10.55;;;24.00;99.90;;;23.01;57.02;101931.59;4993758;28;20451;-68
2021/07/09 09:33:10;;;;;;;16.17;11.07;;;23.90;99.90;;;24.43;57.39;102135.81;4993716;28;20046;-68
2021/07/09 09:35:42;;;;;;;18.95;11.73;;;24.00;99.90;;;24.34;57.65;102142.47;5008625;28;20046;-68
2021/07/09 09:38:16;;;;;;;12.02;10.43;;;23.90;99.90;;;24.33;56.49;102135.28;5008750;28;20455;-69
2021/07/09 09:40:47;;;;;;;11.95;9.85;;;23.90;99.90;;;24.41;57.22;102125.03;4993436;28;20403;-68
2021/07/09 09:43:19;;;;;;;11.30;8.57;;;24.00;99.90;;;24.50;55.49;102126.47;4993709;28;20046;-68
2021/07/09 09:45:59;;;;;;;9.95;8.95;;;24.10;99.90;;;24.44;55.89;102130.31;4993617;28;20133;-68
2021/07/09 09:48:42;;;;;;;12.05;8.88;;;24.10;99.90;;;24.59;54.92;102131.50;4992249;28;20104;-68
2021/07/09 09:51:32;;;;;;;9.43;7.57;;;24.20;99.90;;;24.60;53.66;102127.84;4993552;28;20050;-69
2021/07/09 09:54:04;;;;;;;10.10;8.00;;;24.20;99.90;;;24.21;54.24;102094.34;4993375;28;20053;-70
2021/07/09 09:56:41;;;;;;;9.93;8.95;;;24.10;99.90;;;24.64;55.49;102130.34;4993226;28;20038;-68
2021/07/09 09:59:19;;;;;;;12.70;9.73;;;24.20;99.90;;;24.59;56.33;102102.59;4992934;28;20407;-68
2021/07/09 10:01:57;;;;;;;15.70;10.07;;;24.30;99.90;;;24.85;55.61;102106.94;4993650;28;20050;-68
2021/07/09 10:04:27;;;;;;;12.15;10.85;;;24.60;99.90;;;24.89;55.51;102127.53;4993338;28;20047;-68
2021/07/09 10:06:58;;;;;;;12.68;10.90;;;24.60;99.90;;;24.84;55.05;102129.53;4993032;28;20416;-69
2021/07/09 10:09:29;;;;;;;13.20;11.80;;;24.50;99.90;;;24.88;55.33;102123.03;4992140;28;20051;-69
2021/07/09 10:12:03;;;;;;;14.98;12.15;;;24.50;99.90;;;24.88;55.18;102148.28;4993363;28;20054;-69